Time;durP1;ratioP1;P1;durP2;ratioP2;P2;SDS_P1;SDS_P2;PMS_P1;PMS_P2;Temp;Humidity;BMP_temperature;BMP_pressure;BME280_temperature;BME280_humidity;BME280_pressure;Samples;Min_cycle;Max_cycle;Signal;HPM_P1;HPM_P2
2023/11/01 00:02:19;;;;;;;2.90;2.30;;;;;;;19.26;59.86;96829.16;103830;1277;61961;-37
2023/11/01 00:04:46;;;;;;;3.20;2.40;;;;;;;19.26;59.82;96832.20;103908;1277;72673;-37
2023/11/01 00:07:12;;;;;;;3.50;2.30;;;;;;;19.26;59.89;96843.27;103948;1280;62089;-38
2023/11/01 00:09:40;;;;;;;2.80;2.10;;;;;;;19.26;59.87;96845.38;103636;1278;62191;-36
2023/11/01 00:12:07;;;;;;;3.10;2.20;;;;;;;19.25;59.98;96854.59;107576;1276;75279;-36
2023/11/01 00:14:33;;;;;;;4.10;2.30;;;;;;;19.25;59.94;96863.35;107593;1276;65197;-36
2023/11/01 00:16:59;;;;;;;2.80;2.10;;;;;;;19.26;59.93;96872.36;107125;1276;71452;-36
2023/11/01 00:19:26;;;;;;;3.60;2.40;;;;;;;19.27;59.81;96876.09;103759;1277;62116;-36
2023/11/01 00:21:52;;;;;;;4.00;2.50;;;;;;;19.27;59.80;96884.38;107539;1276;59849;-36
2023/11/01 00:24:19;;;;;;;2.60;2.10;;;;;;;19.28;59.82;96878.59;106273;1276;60939;-38
2023/11/01 00:26:45;;;;;;;2.50;2.20;;;;;;;19.29;59.73;96872.23;103788;1276;62193;-37
2023/11/01 00:29:12;;;;;;;4.00;2.40;;;;;;;19.30;59.76;96871.77;103953;1280;62170;-36
2023/11/01 00:31:39;;;;;;;3.40;2.30;;;;;;;19.30;59.67;96880.63;103722;1282;62877;-36
2023/11/01 00:34:06;;;;;;;2.80;2.20;;;;;;;19.30;59.72;96883.88;103779;1277;62090;-36
2023/11/01 00:36:33;;;;;;;3.60;2.70;;;;;;;19.30;59.64;96883.65;103809;1278;75266;-37
2023/11/01 00:38:59;;;;;;;2.50;2.20;;;;;;;19.30;59.58;96882.48;103810;1280;66743;-38
2023/11/01 00:41:26;;;;;;;2.60;2.30;;;;;;;19.30;59.66;96885.20;103856;1277;73070;-38
2023/11/01 00:43:53;;;;;;;3.40;2.60;;;;;;;19.29;59.60;96884.33;103666;1280;62002;-38
2023/11/01 00:46:19;;;;;;;3.10;2.40;;;;;;;19.29;59.66;96886.12;103862;1277;62082;-37
2023/11/01 00:48:46;;;;;;;3.30;2.40;;;;;;;19.29;59.60;96894.50;103793;1280;75496;-38
2023/11/01 00:51:12;;;;;;;3.10;2.30;;;;;;;19.28;59.52;96892.31;103809;1276;66247;-38
2023/11/01 00:53:39;;;;;;;3.00;2.30;;;;;;;19.27;59.51;96890.13;103754;1277;72744;-38
2023/11/01 00:56:08;;;;;;;2.70;2.10;;;;;;;19.27;59.61;96895.64;103802;1280;62098;-38
2023/11/01 00:58:35;;;;;;;2.70;2.10;;;;;;;19.27;59.56;96893.85;103646;1282;62738;-38
2023/11/01 01:01:02;;;;;;;2.90;2.30;;;;;;;19.26;59.57;96890.98;103738;1277;75446;-38
2023/11/01 01:03:31;;;;;;;2.80;2.40;;;;;;;19.26;59.61;96893.30;103873;1280;66072;-38
2023/11/01 01:05:58;;;;;;;3.40;2.70;;;;;;;19.25;59.58;96890.97;103910;1276;72632;-38
2023/11/01 01:08:25;;;;;;;4.40;2.20;;;;;;;19.25;59.60;96887.88;103797;1280;62771;-38
2023/11/01 01:10:54;;;;;;;2.40;2.20;;;;;;;19.25;59.68;96888.79;103819;1277;62079;-38
2023/11/01 01:13:21;;;;;;;3.50;2.40;;;;;;;19.24;59.66;96888.23;103813;1280;75428;-37
2023/11/01 01:15:48;;;;;;;3.80;2.50;;;;;;;19.24;59.60;96880.55;104048;1277;65423;-36
2023/11/01 01:18:14;;;;;;;2.80;2.30;;;;;;;19.23;59.56;96877.91;103870;1277;72472;-38
2023/11/01 01:20:41;;;;;;;3.40;2.20;;;;;;;19.23;59.63;96874.42;103710;1282;62185;-38
2023/11/01 01:23:08;;;;;;;3.10;2.30;;;;;;;19.23;59.65;96875.42;103801;1277;62187;-38
2023/11/01 01:25:35;;;;;;;4.20;2.10;;;;;;;19.22;59.56;96882.17;103806;1280;75478;-38
2023/11/01 01:28:02;;;;;;;4.70;2.40;;;;;;;19.22;59.51;96881.47;103691;1283;66267;-38
2023/11/01 01:30:28;;;;;;;4.50;2.20;;;;;;;19.22;59.79;96875.65;104207;1276;72670;-37
2023/11/01 01:32:55;;;;;;;3.60;2.30;;;;;;;19.22;59.67;96881.48;103918;1277;62063;-38
2023/11/01 01:35:23;;;;;;;2.70;2.10;;;;;;;19.21;59.56;96876.66;103908;1277;62083;-38
2023/11/01 01:37:49;;;;;;;2.50;2.20;;;;;;;19.21;59.71;96870.05;103785;1277;75230;-38
2023/11/01 01:40:16;;;;;;;2.90;2.30;;;;;;;19.21;59.54;96872.77;103679;1277;65515;-38
2023/11/01 01:42:43;;;;;;;3.80;2.20;;;;;;;19.21;59.69;96879.67;103731;1277;72655;-38
2023/11/01 01:45:10;;;;;;;2.80;2.10;;;;;;;19.20;59.60;96883.07;104008;1280;62007;-38
2023/11/01 01:47:36;;;;;;;2.40;2.00;;;;;;;19.20;59.60;96892.52;104029;1277;62170;-38
2023/11/01 01:50:04;;;;;;;3.30;2.30;;;;;;;19.19;59.69;96886.02;104049;1280;75446;-36
2023/11/01 01:52:31;;;;;;;4.70;2.30;;;;;;;19.20;59.62;96888.11;103758;1276;66121;-37
2023/11/01 01:54:58;;;;;;;2.00;1.90;;;;;;;19.19;59.64;96893.92;103833;1277;72727;-36
2023/11/01 01:57:24;;;;;;;2.70;2.00;;;;;;;19.19;59.62;96897.19;103962;1280;62671;-36
2023/11/01 01:59:51;;;;;;;3.00;2.00;;;;;;;19.20;59.60;96892.23;103975;1277;62069;-36
2023/11/01 02:02:19;;;;;;;3.00;2.10;;;;;;;19.19;59.62;96900.67;104088;1280;75447;-36
2023/11/01 02:04:48;;;;;;;2.40;1.90;;;;;;;19.19;59.66;96902.23;103925;1278;66300;-36
2023/11/01 02:07:14;;;;;;;2.60;2.00;;;;;;;19.19;59.60;96901.83;104011;1277;72879;-38
2023/11/01 02:09:41;;;;;;;2.40;1.90;;;;;;;19.18;59.68;96908.27;104767;1276;62110;-40
2023/11/01 02:12:08;;;;;;;2.20;2.00;;;;;;;19.19;59.61;96911.14;106577;1276;61960;-38
2023/11/01 02:14:35;;;;;;;1.90;1.70;;;;;;;19.19;59.68;96914.94;104081;1277;74105;-38
2023/11/01 02:17:06;;;;;;;2.50;2.10;;;;;;;19.19;59.53;96920.14;104034;1280;65471;-41
2023/11/01 02:19:33;;;;;;;4.60;2.30;;;;;;;19.19;59.59;96930.61;104014;1277;72675;-39
2023/11/01 02:22:00;;;;;;;2.00;1.80;;;;;;;19.19;59.59;96937.44;103909;1280;62689;-38
2023/11/01 02:24:26;;;;;;;3.50;2.10;;;;;;;19.19;59.69;96938.13;103884;1277;62196;-37
2023/11/01 02:26:53;;;;;;;3.80;2.30;;;;;;;19.19;59.56;96938.44;103471;1277;75505;-38
2023/11/01 02:29:22;;;;;;;2.80;2.30;;;;;;;19.19;59.57;96939.06;103959;1280;62084;-38
2023/11/01 02:31:50;;;;;;;2.40;2.20;;;;;;;19.18;59.51;96938.98;104087;1277;72664;-38
2023/11/01 02:34:17;;;;;;;2.80;2.20;;;;;;;19.18;59.55;96950.98;104002;1277;62139;-36
2023/11/01 02:36:45;;;;;;;2.00;1.80;;;;;;;19.18;59.61;96954.09;104030;1277;62076;-38
2023/11/01 02:39:11;;;;;;;3.40;2.20;;;;;;;19.18;59.55;96953.48;103798;1277;75374;-38
2023/11/01 02:41:40;;;;;;;3.30;1.80;;;;;;;19.17;59.57;96960.45;103716;1277;66295;-37
2023/11/01 02:44:07;;;;;;;3.20;2.20;;;;;;;19.18;59.50;96962.08;103965;1277;72693;-37
2023/11/01 02:46:34;;;;;;;2.50;2.20;;;;;;;19.18;59.53;96966.66;103924;1279;62120;-37
2023/11/01 02:49:03;;;;;;;2.80;2.10;;;;;;;19.17;59.51;96970.38;104034;1280;62181;-37
2023/11/01 02:51:31;;;;;;;2.20;2.00;;;;;;;19.17;59.52;96975.34;104053;1277;75226;-37
2023/11/01 02:53:57;;;;;;;2.50;1.90;;;;;;;19.17;59.46;96984.48;103928;1277;65833;-37
2023/11/01 02:56:24;;;;;;;2.80;2.20;;;;;;;19.17;59.53;96988.59;104008;1277;72518;-37
2023/11/01 02:58:51;;;;;;;4.90;2.30;;;;;;;19.17;59.58;96987.05;104011;1276;62005;-36
2023/11/01 03:01:19;;;;;;;5.40;2.00;;;;;;;19.17;59.59;96991.23;104019;1278;62126;-36
2023/11/01 03:03:46;;;;;;;2.40;1.90;;;;;;;19.16;59.52;96997.42;103981;1277;75466;-36
2023/11/01 03:06:12;;;;;;;3.10;2.10;;;;;;;19.16;59.56;97000.69;104017;1280;66161;-36
2023/11/01 03:08:39;;;;;;;3.10;2.20;;;;;;;19.16;59.47;96999.66;103966;1277;72858;-36
2023/11/01 03:11:06;;;;;;;2.10;1.70;;;;;;;19.16;59.50;97002.06;103828;1283;62092;-36
2023/11/01 03:13:32;;;;;;;3.10;2.20;;;;;;;19.15;59.52;96999.90;103871;1278;62078;-36
2023/11/01 03:15:59;;;;;;;2.70;2.20;;;;;;;19.15;59.50;97003.63;103817;1280;75316;-36
2023/11/01 03:18:25;;;;;;;3.40;2.20;;;;;;;19.14;59.52;96992.44;103760;1277;66383;-37
2023/11/01 03:20:52;;;;;;;2.20;1.90;;;;;;;19.14;59.54;96974.22;103731;1277;72470;-37
2023/11/01 03:23:18;;;;;;;2.00;1.80;;;;;;;19.14;59.55;96976.23;104010;1280;62090;-37
2023/11/01 03:25:45;;;;;;;2.40;1.90;;;;;;;19.14;59.41;96989.09;103935;1277;62209;-37
2023/11/01 03:28:12;;;;;;;3.00;2.10;;;;;;;19.14;59.48;96996.31;104037;1280;75425;-37
2023/11/01 03:30:38;;;;;;;2.80;2.00;;;;;;;19.14;59.44;96998.88;103994;1280;65582;-37
2023/11/01 03:33:05;;;;;;;2.30;2.00;;;;;;;19.13;59.46;97010.80;104039;1277;72664;-37
2023/11/01 03:35:32;;;;;;;2.70;1.90;;;;;;;19.13;59.47;97015.06;104037;1280;62075;-37
2023/11/01 03:37:58;;;;;;;2.30;1.90;;;;;;;19.13;59.43;97027.16;103728;1277;62161;-37
2023/11/01 03:40:25;;;;;;;3.40;2.10;;;;;;;19.12;59.57;97037.86;103861;1277;62113;-37
2023/11/01 03:42:52;;;;;;;2.80;1.90;;;;;;;19.13;59.53;97045.92;104006;1277;62100;-37
2023/11/01 03:45:18;;;;;;;2.50;2.00;;;;;;;19.12;59.48;97039.79;104509;1277;72522;-37
2023/11/01 03:47:45;;;;;;;2.60;2.10;;;;;;;19.12;59.59;97032.35;104039;1280;62873;-37
2023/11/01 03:50:12;;;;;;;4.00;2.30;;;;;;;19.12;59.52;97044.89;103983;1276;62078;-37
2023/11/01 03:52:39;;;;;;;2.40;2.10;;;;;;;19.11;59.49;97058.64;103908;1278;75344;-37
2023/11/01 03:55:11;;;;;;;2.10;1.90;;;;;;;19.12;59.50;97062.67;103753;1280;66035;-37
2023/11/01 03:57:38;;;;;;;2.10;1.60;;;;;;;19.11;59.49;97058.48;103906;1278;72338;-37
2023/11/01 04:00:07;;;;;;;2.30;2.10;;;;;;;19.11;59.40;97065.38;103847;1280;62113;-37
2023/11/01 04:02:33;;;;;;;2.50;1.90;;;;;;;19.10;59.48;97066.36;103945;1280;62082;-37
2023/11/01 04:05:00;;;;;;;2.20;2.00;;;;;;;19.10;59.43;97066.53;103893;1278;75546;-37
2023/11/01 04:07:28;;;;;;;2.40;2.20;;;;;;;19.10;59.48;97065.36;103904;1280;66110;-37
2023/11/01 04:09:54;;;;;;;1.80;1.60;;;;;;;19.10;59.45;97065.66;103786;1276;72744;-37
2023/11/01 04:12:21;;;;;;;2.60;1.90;;;;;;;19.10;59.47;97067.15;103893;1280;62078;-37
2023/11/01 04:14:47;;;;;;;2.50;1.80;;;;;;;19.09;59.43;97067.45;103841;1277;62209;-37
2023/11/01 04:17:14;;;;;;;2.20;1.90;;;;;;;19.09;59.51;97074.28;103835;1278;62068;-37
2023/11/01 04:19:40;;;;;;;2.40;2.20;;;;;;;19.09;59.42;97073.73;103932;1280;66211;-37
2023/11/01 04:22:08;;;;;;;2.50;1.90;;;;;;;19.09;59.51;97075.58;103779;1277;72640;-37
2023/11/01 04:24:35;;;;;;;2.00;1.80;;;;;;;19.09;59.43;97073.81;103762;1280;62165;-37
2023/11/01 04:27:01;;;;;;;4.00;2.00;;;;;;;19.09;59.47;97076.42;104061;1277;62139;-37
2023/11/01 04:29:28;;;;;;;2.10;1.90;;;;;;;19.08;59.45;97077.20;103912;1280;75114;-37
2023/11/01 04:31:55;;;;;;;2.30;1.90;;;;;;;19.09;59.43;97074.96;103990;1280;66150;-37
2023/11/01 04:34:21;;;;;;;2.30;2.00;;;;;;;19.08;59.33;97078.96;103971;1277;72701;-37
2023/11/01 04:36:48;;;;;;;1.80;1.70;;;;;;;19.08;59.47;97081.15;103967;1280;62089;-36
2023/11/01 04:39:14;;;;;;;2.70;1.90;;;;;;;19.08;59.40;97081.45;104027;1277;62082;-36
2023/11/01 04:41:41;;;;;;;2.50;1.80;;;;;;;19.07;59.37;97088.83;104025;1278;75404;-36
2023/11/01 04:44:08;;;;;;;2.90;1.70;;;;;;;19.08;59.45;97088.98;103996;1280;66100;-37
2023/11/01 04:46:35;;;;;;;2.70;1.80;;;;;;;19.08;59.33;97090.29;103931;1277;72338;-38
2023/11/01 04:49:02;;;;;;;2.60;2.00;;;;;;;19.07;59.33;97088.90;105080;1276;62070;-40
2023/11/01 04:51:29;;;;;;;3.30;2.00;;;;;;;19.08;59.41;97097.51;106163;1276;62090;-37
2023/11/01 04:53:56;;;;;;;2.00;1.80;;;;;;;19.08;59.47;97101.62;103831;1278;75545;-38
2023/11/01 04:56:25;;;;;;;1.90;1.70;;;;;;;19.08;59.38;97105.58;104011;1280;66271;-41
2023/11/01 04:58:53;;;;;;;2.90;1.80;;;;;;;19.08;59.37;97108.13;104037;1277;72507;-38
2023/11/01 05:01:19;;;;;;;2.50;1.80;;;;;;;19.08;59.41;97109.69;104075;1280;62085;-38
2023/11/01 05:03:46;;;;;;;2.60;1.90;;;;;;;19.08;59.31;97113.80;103841;1280;62076;-38
2023/11/01 05:06:13;;;;;;;2.20;2.00;;;;;;;19.08;59.34;97118.52;103787;1277;75304;-38
2023/11/01 05:08:39;;;;;;;2.10;1.80;;;;;;;19.08;59.26;97119.68;103751;1277;65943;-37
2023/11/01 05:11:06;;;;;;;2.30;1.80;;;;;;;19.07;59.41;97127.36;107560;1276;72467;-37
2023/11/01 05:13:33;;;;;;;1.90;1.50;;;;;;;19.08;59.35;97128.91;105977;1277;62062;-37
2023/11/01 05:15:59;;;;;;;2.40;1.90;;;;;;;19.08;59.29;97128.23;103958;1277;62066;-37
2023/11/01 05:18:27;;;;;;;2.10;1.70;;;;;;;19.09;59.29;97128.63;103888;1277;75413;-37
2023/11/01 05:20:54;;;;;;;2.00;1.80;;;;;;;19.09;59.27;97135.91;103823;1277;64847;-37
2023/11/01 05:23:20;;;;;;;1.90;1.70;;;;;;;19.09;59.32;97140.50;103926;1277;72645;-37
2023/11/01 05:25:48;;;;;;;2.20;2.00;;;;;;;19.09;59.19;97141.73;104040;1280;62095;-37
2023/11/01 05:28:15;;;;;;;2.10;1.60;;;;;;;19.09;59.19;97144.38;103850;1280;62055;-37
2023/11/01 05:30:42;;;;;;;2.50;1.80;;;;;;;19.09;59.18;97142.95;104016;1277;75905;-37
2023/11/01 05:33:08;;;;;;;2.30;1.80;;;;;;;19.08;59.19;97139.55;103901;1280;66221;-37
2023/11/01 05:35:36;;;;;;;2.20;1.80;;;;;;;19.08;59.21;97135.04;104010;1276;72618;-38
2023/11/01 05:38:03;;;;;;;3.20;1.60;;;;;;;19.08;59.13;97141.77;103998;1280;62077;-38
2023/11/01 05:40:30;;;;;;;3.00;1.90;;;;;;;19.08;59.21;97143.73;104264;1277;62251;-38
2023/11/01 05:42:57;;;;;;;1.80;1.60;;;;;;;19.07;59.27;97152.79;103780;1278;75446;-38
2023/11/01 05:45:23;;;;;;;2.40;1.90;;;;;;;19.07;59.17;97161.48;103846;1277;65293;-38
2023/11/01 05:47:50;;;;;;;2.60;2.10;;;;;;;19.07;59.28;97169.84;103939;1280;73056;-38
2023/11/01 05:50:23;;;;;;;2.00;1.60;;;;;;;19.07;59.13;97181.88;104482;1280;62111;-38
2023/11/01 05:52:53;;;;;;;3.00;2.10;;;;;;;19.07;59.18;97180.39;103851;1280;62085;-37
2023/11/01 05:55:19;;;;;;;1.90;1.60;;;;;;;19.06;59.23;97182.48;104530;1277;75451;-38
2023/11/01 05:57:59;;;;;;;2.30;1.70;;;;;;;19.06;59.22;97187.67;103869;1280;65618;-38
2023/11/01 06:00:26;;;;;;;2.00;1.70;;;;;;;19.06;59.24;97190.52;103754;1277;72562;-37
2023/11/01 06:02:52;;;;;;;2.10;1.70;;;;;;;19.06;59.19;97191.01;103823;1280;62165;-37
2023/11/01 06:05:22;;;;;;;2.10;1.50;;;;;;;19.06;59.15;97194.56;103738;1277;62091;-35
2023/11/01 06:07:53;;;;;;;1.70;1.50;;;;;;;19.06;59.12;97198.83;104107;1280;77075;-37
2023/11/01 06:10:21;;;;;;;2.60;1.80;;;;;;;19.06;59.28;97195.33;104378;1277;67401;-36
2023/11/01 06:12:47;;;;;;;2.10;1.70;;;;;;;19.05;59.55;97205.70;103617;1277;73005;-36
2023/11/01 06:15:14;;;;;;;2.20;1.60;;;;;;;19.06;59.76;97217.20;103679;1277;62107;-36
2023/11/01 06:17:41;;;;;;;3.90;1.70;;;;;;;19.07;60.05;97222.25;103573;1280;62749;-36
2023/11/01 06:20:08;;;;;;;3.20;1.80;;;;;;;19.07;60.20;97222.66;103864;1280;75132;-36
2023/11/01 06:22:36;;;;;;;3.70;1.80;;;;;;;19.09;60.53;97225.02;104128;1277;67071;-37
2023/11/01 06:25:03;;;;;;;4.50;1.70;;;;;;;19.09;60.87;97228.89;103843;1277;72516;-36
2023/11/01 06:27:31;;;;;;;3.30;1.80;;;;;;;19.11;60.82;97229.38;103808;1278;62081;-36
2023/11/01 06:29:58;;;;;;;1.80;1.70;;;;;;;19.12;61.03;97234.27;103829;1276;62143;-38
2023/11/01 06:32:36;;;;;;;2.90;1.70;;;;;;;19.15;61.03;97239.98;103888;1280;76320;-36
2023/11/01 06:35:23;;;;;;;1.80;1.60;;;;;;;19.16;61.09;97237.05;104911;1276;66475;-39
2023/11/01 06:37:56;;;;;;;2.30;1.60;;;;;;;19.18;61.07;97246.69;107131;1277;73390;-35
2023/11/01 06:40:23;;;;;;;2.50;1.70;;;;;;;19.20;61.06;97254.87;106312;1279;61808;-35
2023/11/01 06:42:54;;;;;;;4.10;1.80;;;;;;;19.22;61.05;97257.86;104462;1279;62191;-35
2023/11/01 06:45:26;;;;;;;6.20;2.10;;;;;;;19.23;60.98;97263.23;102484;1286;75640;-34
2023/11/01 06:47:53;;;;;;;2.30;1.70;;;;;;;19.25;60.97;97264.35;103248;1286;66115;-35
2023/11/01 06:50:20;;;;;;;2.70;1.60;;;;;;;19.27;60.93;97264.44;102714;1286;73536;-33
2023/11/01 06:52:47;;;;;;;2.40;1.80;;;;;;;19.28;60.84;97269.03;102866;1288;62082;-33
2023/11/01 06:55:16;;;;;;;6.20;1.80;;;;;;;19.29;60.78;97268.83;106517;1284;59911;-32
2023/11/01 06:57:42;;;;;;;2.20;2.00;;;;;;;19.31;60.80;97269.95;106624;1285;75651;-33
2023/11/01 07:00:09;;;;;;;4.20;1.80;;;;;;;19.32;60.58;97275.08;103169;1288;65122;-33
2023/11/01 07:02:37;;;;;;;2.10;1.90;;;;;;;19.33;60.57;97275.17;106652;1283;71140;-34
2023/11/01 07:05:06;;;;;;;2.30;1.60;;;;;;;19.34;60.46;97267.67;106659;1284;59941;-35
2023/11/01 07:07:33;;;;;;;3.70;2.00;;;;;;;19.35;60.62;97259.63;106677;1283;60060;-35
2023/11/01 07:09:59;;;;;;;1.70;1.60;;;;;;;19.38;60.59;97259.77;106710;1282;59933;-34
2023/11/01 07:12:26;;;;;;;3.10;1.50;;;;;;;19.38;60.51;97252.73;103352;1285;64876;-34
2023/11/01 07:14:53;;;;;;;3.30;2.00;;;;;;;19.41;60.53;97251.59;102829;1286;72782;-34
2023/11/01 07:17:20;;;;;;;2.20;1.70;;;;;;;19.41;60.38;97254.00;103546;1277;62032;-35
2023/11/01 07:19:46;;;;;;;2.10;1.70;;;;;;;19.43;60.36;97259.69;103718;1277;62114;-36
2023/11/01 07:22:16;;;;;;;2.00;1.70;;;;;;;19.43;60.35;97267.08;103695;1278;75390;-34
2023/11/01 07:24:44;;;;;;;2.80;1.80;;;;;;;19.43;60.21;97270.88;103380;1279;67542;-32
2023/11/01 07:27:11;;;;;;;2.00;1.30;;;;;;;19.44;60.20;97273.83;103643;1277;74050;-35
2023/11/01 07:29:48;;;;;;;3.00;1.80;;;;;;;19.44;60.26;97274.08;103582;1278;62069;-32
2023/11/01 07:32:15;;;;;;;5.10;1.70;;;;;;;19.45;60.40;97279.98;104139;1277;62146;-36
2023/11/01 07:34:41;;;;;;;4.00;1.60;;;;;;;19.46;60.34;97292.64;103530;1277;76365;-34
2023/11/01 07:37:15;;;;;;;5.00;1.80;;;;;;;19.46;60.48;97296.67;107471;1276;64979;-35
2023/11/01 07:39:44;;;;;;;2.00;1.50;;;;;;;19.46;60.57;97298.38;104541;1277;72158;-35
2023/11/01 07:42:11;;;;;;;3.40;1.50;;;;;;;19.47;60.53;97295.08;103674;1277;62129;-34
2023/11/01 07:44:38;;;;;;;5.50;1.70;;;;;;;19.48;60.47;97296.08;107470;1276;60009;-35
2023/11/01 07:47:05;;;;;;;6.00;1.90;;;;;;;19.48;60.44;97301.52;107540;1277;74217;-35
2023/11/01 07:49:31;;;;;;;4.70;1.70;;;;;;;19.49;60.50;97301.13;107408;1279;64949;-35
2023/11/01 07:51:58;;;;;;;2.30;1.60;;;;;;;19.50;60.68;97304.27;106277;1279;62229;-35
2023/11/01 07:54:25;;;;;;;3.00;1.60;;;;;;;19.52;60.88;97307.34;103662;1282;62364;-35
2023/11/01 07:56:52;;;;;;;4.70;1.50;;;;;;;19.54;60.83;97312.92;103589;1277;62183;-35
2023/11/01 07:59:18;;;;;;;5.20;1.60;;;;;;;19.55;60.97;97311.79;103497;1281;76740;-33
2023/11/01 08:01:45;;;;;;;2.80;1.60;;;;;;;19.56;61.19;97319.66;103986;1277;66085;-34
2023/11/01 08:04:12;;;;;;;5.70;1.50;;;;;;;19.58;61.38;97323.41;103878;1277;72653;-33
2023/11/01 08:06:39;;;;;;;4.60;1.60;;;;;;;19.60;61.62;97327.17;103662;1283;62092;-36
2023/11/01 08:09:06;;;;;;;3.80;1.80;;;;;;;19.63;61.73;97328.13;103527;1277;62172;-34
2023/11/01 08:11:33;;;;;;;2.70;1.30;;;;;;;19.64;61.60;97328.77;103638;1277;75927;-34
2023/11/01 08:18:31;;;;;;;3.40;1.50;;;;;;;19.64;61.53;97332.12;103624;1277;73509;-34
2023/11/01 08:20:58;;;;;;;4.30;1.60;;;;;;;19.63;61.52;97336.45;103666;1277;62351;-34
2023/11/01 08:23:25;;;;;;;3.10;1.60;;;;;;;19.63;61.40;97342.95;103420;1277;62216;-34
2023/11/01 08:25:51;;;;;;;3.80;1.50;;;;;;;19.63;61.42;97352.52;103673;1277;62110;-33
2023/11/01 08:28:18;;;;;;;2.10;1.50;;;;;;;19.62;61.44;97355.30;103863;1280;66011;-34
2023/11/01 08:30:45;;;;;;;2.10;1.30;;;;;;;19.63;61.27;97365.55;103869;1277;72592;-35
2023/11/01 08:33:11;;;;;;;3.30;1.60;;;;;;;19.62;61.37;97370.73;104347;1280;62375;-36
2023/11/01 08:35:38;;;;;;;3.50;1.80;;;;;;;19.62;61.35;97370.04;104767;1277;62142;-35
2023/11/01 08:38:08;;;;;;;2.40;1.50;;;;;;;19.63;61.20;97371.98;103513;1279;75291;-35
2023/11/01 08:40:35;;;;;;;1.60;1.50;;;;;;;19.63;61.16;97381.85;103973;1281;65881;-35
2023/11/01 08:43:02;;;;;;;2.20;1.40;;;;;;;19.63;61.19;97388.52;103747;1277;73108;-34
2023/11/01 08:45:28;;;;;;;2.20;1.40;;;;;;;19.63;61.17;97386.97;103657;1281;62126;-35
2023/11/01 08:47:55;;;;;;;3.60;1.50;;;;;;;19.63;61.23;97390.23;103751;1277;62152;-35
2023/11/01 08:50:22;;;;;;;2.70;1.40;;;;;;;19.63;61.15;97389.93;103884;1277;75979;-35
2023/11/01 08:52:49;;;;;;;2.20;1.60;;;;;;;19.65;61.06;97393.61;103619;1282;182775;-34
2023/11/01 08:55:16;;;;;;;2.80;1.50;;;;;;;19.67;61.14;97395.64;103654;1280;73778;-36
2023/11/01 08:57:46;;;;;;;2.30;1.50;;;;;;;19.68;60.96;97396.28;103515;1286;62156;-34
2023/11/01 09:00:14;;;;;;;2.10;1.50;;;;;;;19.69;61.12;97390.70;103672;1277;62136;-34
2023/11/01 09:02:41;;;;;;;1.90;1.30;;;;;;;19.69;61.10;97394.82;103745;1278;75407;-34
2023/11/01 09:05:08;;;;;;;1.80;1.40;;;;;;;19.69;61.37;97393.13;103447;1277;66988;-37
2023/11/01 09:07:36;;;;;;;5.20;2.10;;;;;;;19.70;61.87;97391.83;103648;1277;73509;-41
2023/11/01 09:10:03;;;;;;;3.10;1.60;;;;;;;19.74;62.64;97389.02;103590;1283;62083;-38
2023/11/01 09:12:30;;;;;;;4.30;1.60;;;;;;;19.77;62.98;97383.39;107459;1276;60251;-39
2023/11/01 09:14:57;;;;;;;2.90;1.60;;;;;;;19.81;63.24;97379.19;105010;1277;75285;-40
2023/11/01 09:17:24;;;;;;;4.00;1.20;;;;;;;19.84;63.23;97376.98;106868;1277;64795;-42
2023/11/01 09:19:51;;;;;;;5.30;2.10;;;;;;;19.87;63.19;97378.59;107404;1276;72930;-40
2023/11/01 09:22:18;;;;;;;3.60;1.60;;;;;;;19.90;63.10;97379.33;105749;1277;62174;-41
2023/11/01 09:24:44;;;;;;;3.70;1.40;;;;;;;19.92;63.26;97383.63;105721;1276;62129;-40
2023/11/01 09:27:11;;;;;;;3.80;1.50;;;;;;;19.94;63.13;97384.36;103755;1282;76131;-39
2023/11/01 09:29:37;;;;;;;2.50;1.40;;;;;;;19.96;63.20;97384.69;103742;1283;65229;-39
2023/11/01 09:32:06;;;;;;;4.60;1.60;;;;;;;19.97;63.19;97385.96;103770;1276;72486;-40
2023/11/01 09:34:33;;;;;;;4.80;1.60;;;;;;;19.99;62.90;97387.48;103739;1277;62173;-40
2023/11/01 09:37:00;;;;;;;3.20;1.50;;;;;;;20.00;62.90;97390.73;103737;1277;62107;-40
2023/11/01 09:39:27;;;;;;;3.70;1.70;;;;;;;20.01;62.84;97390.75;103690;1280;76537;-39
2023/11/01 09:41:55;;;;;;;4.00;1.50;;;;;;;20.02;62.78;97385.80;103812;1277;66261;-38
2023/11/01 09:44:22;;;;;;;2.90;1.40;;;;;;;20.01;62.75;97381.66;103584;1277;72822;-39
2023/11/01 09:46:49;;;;;;;9.00;1.90;;;;;;;20.00;62.91;97386.24;103521;1280;62155;-36
2023/11/01 09:49:17;;;;;;;3.00;1.60;;;;;;;20.00;63.04;97389.10;103488;1277;62124;-39
2023/11/01 09:51:44;;;;;;;2.20;1.40;;;;;;;20.00;63.16;97389.42;103582;1280;75787;-39
2023/11/01 09:54:13;;;;;;;3.70;1.30;;;;;;;20.00;62.94;97385.62;103451;1277;67457;-40
2023/11/01 09:56:44;;;;;;;6.40;1.40;;;;;;;20.00;63.33;97385.85;103799;1277;73688;-36
2023/11/01 09:59:12;;;;;;;4.30;1.50;;;;;;;20.00;63.33;97379.55;103563;1282;62182;-41
2023/11/01 10:01:49;;;;;;;5.30;1.90;;;;;;;20.02;63.74;97383.16;103310;1280;62085;-40
2023/11/01 10:05:06;;;;;;;6.90;1.40;;;;;;;20.07;63.91;97387.96;103443;1277;75568;-37
2023/11/01 10:07:32;;;;;;;3.60;1.40;;;;;;;20.10;64.47;97382.14;104222;1277;64838;-38
2023/11/01 10:10:01;;;;;;;6.80;1.40;;;;;;;20.16;64.57;97382.90;103722;1277;73533;-39
2023/11/01 10:12:27;;;;;;;2.80;1.30;;;;;;;20.21;64.41;97386.01;103570;1277;62219;-39
2023/11/01 10:14:54;;;;;;;5.80;1.40;;;;;;;20.26;64.27;97387.27;103457;1277;62140;-39
2023/11/01 10:17:21;;;;;;;5.60;1.60;;;;;;;20.32;64.14;97384.95;103742;1282;75343;-39
2023/11/01 10:19:48;;;;;;;3.20;1.30;;;;;;;20.36;63.75;97383.61;103416;1284;66735;-38
2023/11/01 10:22:14;;;;;;;3.70;1.50;;;;;;;20.39;63.58;97389.09;103793;1277;72841;-40
2023/11/01 10:24:42;;;;;;;6.00;1.50;;;;;;;20.41;63.46;97393.86;103697;1282;62091;-41
2023/11/01 10:27:09;;;;;;;3.40;1.40;;;;;;;20.43;63.66;97394.98;103860;1277;62104;-40
2023/11/01 10:29:43;;;;;;;6.80;1.60;;;;;;;20.47;64.04;97401.48;103655;1283;76006;-42
2023/11/01 10:32:10;;;;;;;3.40;1.60;;;;;;;20.49;64.27;97401.27;103616;1277;66460;-39
2023/11/01 10:34:37;;;;;;;3.10;1.60;;;;;;;20.51;64.26;97401.60;103724;1277;73200;-38
2023/11/01 10:37:08;;;;;;;2.10;1.20;;;;;;;20.52;64.51;97402.14;103771;1283;62034;-39
2023/11/01 10:39:37;;;;;;;6.60;1.50;;;;;;;20.53;64.61;97402.11;103642;1277;62174;-40
2023/11/01 10:42:04;;;;;;;6.70;1.60;;;;;;;20.54;64.95;97396.66;103850;1282;76480;-40
2023/11/01 10:44:31;;;;;;;4.40;1.60;;;;;;;20.55;64.74;97395.98;103649;1280;66255;-39
2023/11/01 10:46:57;;;;;;;2.20;1.30;;;;;;;20.56;64.83;97395.92;103765;1281;73584;-40
2023/11/01 10:49:24;;;;;;;3.20;1.60;;;;;;;20.57;64.95;97400.02;103654;1283;62084;-38
2023/11/01 10:51:51;;;;;;;2.40;1.40;;;;;;;20.56;64.87;97402.05;103568;1277;62175;-39
2023/11/01 10:54:17;;;;;;;3.00;1.30;;;;;;;20.56;64.97;97398.23;103522;1283;75999;-43
2023/11/01 10:56:45;;;;;;;6.80;1.80;;;;;;;20.57;65.07;97402.92;103744;1280;66165;-40
2023/11/01 10:59:29;;;;;;;3.40;1.20;;;;;;;20.57;65.17;97402.86;103505;1277;73723;-42
2023/11/01 11:02:27;;;;;;;4.90;1.40;;;;;;;20.59;65.28;97401.23;103804;1276;62202;-39
2023/11/01 11:05:04;;;;;;;7.00;1.10;;;;;;;20.62;65.36;97411.77;103811;1280;62078;-39
2023/11/01 11:07:45;;;;;;;3.30;1.20;;;;;;;20.65;65.35;97413.67;103811;1277;75128;-37
2023/11/01 11:10:20;;;;;;;3.50;1.40;;;;;;;20.69;65.39;97410.54;107405;1277;67432;-40
2023/11/01 11:13:09;;;;;;;6.60;1.40;;;;;;;20.74;65.45;97415.51;104720;1281;73669;-38
2023/11/01 11:16:10;;;;;;;3.60;1.60;;;;;;;20.80;65.18;97411.53;104531;1277;62149;-38
2023/11/01 11:18:44;;;;;;;3.80;1.30;;;;;;;20.84;64.91;97406.91;104569;1277;62117;-38
2023/11/01 11:21:49;;;;;;;2.80;1.60;;;;;;;20.86;64.68;97404.16;104391;1277;76443;-38
2023/11/01 11:24:37;;;;;;;1.60;1.30;;;;;;;20.87;64.36;97400.81;104122;1277;66841;-40
2023/11/01 11:27:45;;;;;;;3.60;1.30;;;;;;;20.88;64.24;97398.18;103742;1283;73532;-42
2023/11/01 11:30:12;;;;;;;5.30;1.40;;;;;;;20.88;64.00;97400.59;103604;1280;62018;-43
2023/11/01 11:32:40;;;;;;;9.70;1.60;;;;;;;20.86;63.93;97397.39;103778;1277;62081;-40
2023/11/01 11:35:20;;;;;;;3.00;1.30;;;;;;;20.87;64.25;97395.05;103746;1277;76614;-39